Latest Weather Observations for Cape Byron

IDN60801

Issued at 5:35 pm EST Friday 18 April 2014 (issued every 30 minutes, with the page automatically refreshed every 10 minutes)

About weather observations | Map of weather stations | Latest weather observations for NSW | Other Formats
Station Details ID: 058216 Name: CAPE BYRON AWS Lat: -28.64 Lon: 153.64 Height: 95.0 m
Data from the previous 72 hours. | See also: Recent months at Cape Byron
Date/Time
EST
Temp
°C
App
Temp
°C
Dew
Point
Rel
Hum
%
Delta-T
°C
Wind Press
QNH
hPa
Press
MSL
hPa
Rain
since 9 am
mm
Dir
 
Spd
km/h
Gust
km/h
Spd
kts
Gust
kts
18/05:30pm 21.6 22.1 18.4 82 2.0 ENE 13 19 7 10 1014.8 - 0.0
18/05:00pm 22.1 23.5 18.7 81 2.1 E 9 13 5 7 1014.5 - 0.0
18/04:30pm 23.3 24.6 19.2 78 2.6 ENE 11 15 6 8 1014.3 - 0.0
18/04:00pm 23.9 25.2 19.4 76 2.9 E 11 15 6 8 1014.1 - 0.0
18/03:30pm 24.6 25.9 20.1 76 2.9 E 13 19 7 10 1014.0 - 0.0
18/03:00pm 24.7 25.2 20.0 75 3.1 E 17 20 9 11 1014.0 1013.6 0.0
18/02:30pm 24.8 25.1 20.3 76 2.9 E 19 22 10 12 1014.1 - 0.0
18/02:00pm 24.6 25.2 20.3 77 2.8 E 17 22 9 12 1014.2 - 0.0
18/01:30pm 24.5 24.5 20.2 77 2.8 E 20 24 11 13 1014.4 - 0.0
18/01:00pm 24.2 24.2 20.1 78 2.7 E 20 26 11 14 1014.5 - 0.0
18/12:30pm 23.1 23.2 19.1 78 2.6 ESE 17 20 9 11 1014.9 - 0.0
18/12:00pm 23.2 23.0 18.5 75 3.0 SE 17 26 9 14 1015.4 1015.0 0.0
18/11:30am 22.7 23.0 18.0 75 2.9 SSE 13 20 7 11 1016.0 - 0.0
18/11:00am 22.0 21.8 17.6 76 2.7 S 15 20 8 11 1016.6 - 0.0
18/10:30am 21.4 20.6 17.0 76 2.7 S 17 22 9 12 1016.9 - 0.0
18/10:00am 21.2 20.0 17.6 80 2.2 S 20 24 11 13 1017.4 - 0.0
18/09:30am 20.5 19.1 16.9 80 2.2 SSW 20 26 11 14 1017.4 - 0.0
18/09:00am 19.9 18.2 16.3 80 2.2 SW 20 26 11 14 1017.6 1017.2 0.2
18/08:30am 19.4 17.1 15.7 79 2.2 SW 22 32 12 17 1017.7 - 0.2
18/08:00am 18.7 17.1 16.1 85 1.6 SW 19 24 10 13 1017.7 - 0.2
18/07:30am 17.9 15.6 15.7 87 1.3 WSW 22 30 12 16 1017.7 - 0.2
18/07:00am 17.3 14.2 15.6 90 1.0 WSW 26 33 14 18 1017.3 - 0.2
18/06:30am 17.3 14.2 15.6 90 1.0 WSW 26 32 14 17 1017.0 - 0.2
18/06:00am 17.2 14.1 15.7 91 0.9 WSW 26 32 14 17 1016.9 1016.5 0.2
18/05:30am 17.2 13.8 15.9 92 0.8 WSW 28 33 15 18 1016.6 - 0.2
18/05:00am 17.1 14.2 16.1 94 0.6 WSW 26 35 14 19 1016.6 - 0.2
18/04:30am 17.1 13.9 16.3 95 0.5 WSW 28 35 15 19 1016.4 - 0.2
18/04:00am 17.4 14.4 16.8 96 0.4 WSW 28 33 15 18 1016.4 - 0.2
18/03:30am 17.5 14.5 16.7 95 0.5 WSW 28 33 15 18 1016.6 - 0.2
18/03:00am 17.4 14.9 17.1 98 0.2 WSW 26 33 14 18 1016.5 1016.2 0.2
18/02:30am 17.7 15.3 17.4 98 0.2 WSW 26 32 14 17 1016.8 - 0.2
18/02:00am 17.8 15.5 17.6 99 0.1 WSW 26 32 14 17 1017.1 - 0.2
18/01:30am 18.0 16.2 17.8 99 0.1 WSW 24 30 13 16 1017.4 - 0.2
18/01:00am 17.7 16.6 17.7 100 0.0 W 20 28 11 15 1017.4 - 0.2
18/12:30am 18.0 17.2 18.0 100 0.0 WSW 19 22 10 12 1017.5 - 0.2
18/12:00am 18.1 16.0 18.1 100 0.0 SW 26 32 14 17 1017.8 1017.4 0.2
 
Date/Time
EST
Temp
°C
App
Temp
°C
Dew
Point
Rel
Hum
%
Delta-T
°C
Wind Press
QNH
hPa
Press
MSL
hPa
Rain
since 9 am
mm
Dir
 
Spd
km/h
Gust
km/h
Spd
kts
Gust
kts
17/11:30pm 18.7 16.7 18.4 98 0.2 WSW 26 33 14 18 1017.7 - 0.2
17/11:00pm 19.5 19.8 19.5 100 0.0 SSW 17 20 9 11 1017.8 - 0.2
17/10:30pm 19.4 18.9 18.7 96 0.4 SW 19 24 10 13 1018.1 - 0.0
17/10:00pm 20.3 20.3 19.0 92 0.8 SW 17 24 9 13 1018.2 - 0.0
17/09:30pm 20.6 21.0 18.9 90 1.1 SSW 15 26 8 14 1018.2 - 0.0
17/09:00pm 21.9 20.9 18.9 83 1.9 S 22 28 12 15 1017.8 1017.4 0.0
17/08:30pm 21.9 20.7 19.3 85 1.7 SSE 24 32 13 17 1017.6 - 0.0
17/08:00pm 21.9 20.2 18.1 79 2.4 S 24 30 13 16 1017.5 - 0.0
17/07:30pm 21.8 21.2 18.8 83 1.9 S 20 26 11 14 1017.3 - 0.0
17/07:00pm 21.8 20.0 17.8 78 2.5 SSE 24 32 13 17 1016.9 - 0.0
17/06:30pm 21.7 19.7 18.3 81 2.1 S 26 33 14 18 1016.6 - 0.0
17/06:00pm 21.6 19.5 18.0 80 2.2 S 26 32 14 17 1016.3 1016.0 0.0
17/05:30pm 21.7 20.3 17.9 79 2.4 SSE 22 30 12 16 1016.1 - 0.0
17/05:00pm 21.9 20.5 17.9 78 2.5 S 22 30 12 16 1016.0 - 0.0
17/04:30pm 21.9 20.4 17.7 77 2.6 S 22 28 12 15 1015.8 - 0.0
17/04:00pm 22.1 20.8 18.1 78 2.5 S 22 30 12 16 1015.6 - 0.0
17/03:30pm 22.1 20.0 18.1 78 2.5 S 26 32 14 17 1015.6 - 0.0
17/03:00pm 22.0 20.0 17.4 75 2.8 S 24 30 13 16 1015.8 1015.4 0.0
17/02:30pm 22.1 19.8 17.5 75 2.9 S 26 33 14 18 1015.9 - 0.0
17/02:00pm 22.1 20.4 18.1 78 2.5 S 24 33 13 18 1016.0 - 0.0
17/01:30pm 22.1 19.2 17.9 77 2.6 S 30 35 16 19 1016.3 - 0.0
17/01:00pm 22.1 19.8 17.7 76 2.7 S 26 35 14 19 1016.5 - 0.0
17/12:30pm 22.1 20.6 17.7 76 2.7 S 22 30 12 16 1016.8 - 0.0
17/12:00pm 22.5 21.3 18.5 78 2.5 S 22 26 12 14 1017.2 1016.8 0.0
17/11:30am 22.7 21.8 17.8 74 3.1 SW 19 28 10 15 1017.5 - 0.0
17/11:00am 22.1 20.7 17.0 73 3.1 SW 20 30 11 16 1018.0 - 0.0
17/10:30am 21.6 19.9 17.2 76 2.7 SW 22 32 12 17 1018.4 - 0.0
17/10:00am 21.1 18.1 16.9 77 2.6 SW 28 37 15 20 1018.6 - 0.0
17/09:30am 20.6 17.1 16.6 78 2.4 SW 30 43 16 23 1018.5 - 0.0
17/09:00am 20.1 16.9 16.3 79 2.3 SW 28 37 15 20 1018.6 1018.2 0.0
17/08:30am 19.5 16.6 16.0 80 2.1 WSW 26 35 14 19 1018.6 - 0.0
17/08:00am 18.9 15.1 15.8 82 1.8 WSW 30 37 16 20 1018.4 - 0.0
17/07:30am 18.2 13.9 15.3 83 1.7 WSW 32 41 17 22 1018.1 - 0.0
17/07:00am 17.7 13.2 15.0 84 1.6 WSW 32 41 17 22 1017.8 - 0.0
17/06:30am 17.5 12.9 15.0 85 1.5 WSW 33 39 18 21 1017.4 - 0.0
17/06:00am 17.5 12.9 15.1 86 1.4 WSW 33 39 18 21 1017.0 1016.6 0.0
17/05:30am 17.4 12.9 15.0 86 1.4 WSW 32 37 17 20 1016.6 - 0.0
17/05:00am 17.4 13.0 15.2 87 1.3 WSW 32 39 17 21 1016.4 - 0.0
17/04:30am 17.2 12.6 15.2 88 1.2 WSW 33 41 18 22 1016.3 - 0.0
17/04:00am 17.3 12.8 15.3 88 1.2 WSW 33 41 18 22 1016.1 - 0.0
17/03:30am 17.5 13.0 15.5 88 1.2 WSW 33 39 18 21 1016.0 - 0.0
17/03:00am 17.3 13.0 15.8 91 0.9 WSW 33 39 18 21 1015.9 1015.5 0.0
17/02:30am 17.6 13.4 16.1 91 0.9 WSW 33 39 18 21 1015.9 - 0.0
17/02:00am 17.7 13.6 16.4 92 0.8 WSW 33 39 18 21 1016.1 - 0.0
17/01:30am 17.7 13.9 16.6 93 0.7 WSW 32 37 17 20 1016.3 - 0.0
17/01:00am 17.7 13.9 16.6 93 0.7 WSW 32 39 17 21 1016.5 - 0.0
17/12:30am 17.9 14.6 17.1 95 0.5 WSW 30 37 16 20 1016.8 - 0.0
17/12:00am 18.1 15.0 17.5 96 0.4 WSW 30 37 16 20 1016.9 1016.5 0.0
 
Date/Time
EST
Temp
°C
App
Temp
°C
Dew
Point
Rel
Hum
%
Delta-T
°C
Wind Press
QNH
hPa
Press
MSL
hPa
Rain
since 9 am
mm
Dir
 
Spd
km/h
Gust
km/h
Spd
kts
Gust
kts
16/11:30pm 18.7 16.0 17.5 93 0.7 WSW 28 35 15 19 1017.1 - 0.0
16/11:00pm 19.0 16.7 17.7 92 0.8 SW 26 33 14 18 1017.1 - 0.0
16/10:30pm 19.1 16.8 17.6 91 0.9 SW 26 33 14 18 1017.1 - 0.0
16/10:00pm 19.0 17.1 17.7 92 0.8 SW 24 30 13 16 1017.2 - 0.0
16/09:30pm 19.3 17.1 17.8 91 0.9 SW 26 33 14 18 1017.1 - 0.0
16/09:00pm 19.4 17.9 18.6 95 0.5 SW 24 30 13 16 1016.9 1016.5 0.0
16/08:30pm 19.6 18.1 18.6 94 0.6 SW 24 32 13 17 1016.5 - 0.0
16/08:00pm 19.9 18.4 18.6 92 0.8 SW 24 32 13 17 1016.4 - 0.0
16/07:30pm 19.8 18.3 18.6 93 0.8 SW 24 32 13 17 1016.3 - 0.0
16/07:00pm 19.9 18.3 18.4 91 0.9 SW 24 30 13 16 1016.0 - 0.0
16/06:30pm 20.1 18.6 18.6 91 0.9 SW 24 32 13 17 1015.6 - 0.0
16/06:00pm 20.2 18.7 18.5 90 1.1 SW 24 30 13 16 1015.5 1015.1 0.0
16/05:30pm 20.6 18.9 18.9 90 1.1 SW 26 35 14 19 1015.3 - 0.0
16/05:00pm 21.5 18.1 19.1 86 1.5 SSW 35 43 19 23 1014.9 - 0.0
16/04:30pm 21.7 18.1 19.4 87 1.5 S 37 44 20 24 1014.8 - 0.0
16/04:00pm 21.8 16.5 18.6 82 2.0 S 44 52 24 28 1014.5 - 0.0
16/03:30pm 21.8 17.6 18.8 83 1.9 S 39 48 21 26 1014.5 - 0.0
16/03:00pm 21.6 17.8 19.7 89 1.2 S 39 46 21 25 1014.5 1014.1 0.0
16/02:30pm 21.8 19.4 20.3 91 1.0 SSW 33 41 18 22 1014.5 - 0.0
16/02:00pm 21.8 19.4 19.9 89 1.2 S 32 39 17 21 1014.7 - 0.0
16/01:30pm 21.6 18.3 19.3 87 1.5 S 35 41 19 22 1014.9 - 0.0
16/01:00pm 21.7 17.2 19.1 85 1.7 S 41 50 22 27 1015.0 - 0.0
16/12:30pm 21.9 19.1 19.1 84 1.8 S 32 39 17 21 1015.3 - 0.0
16/12:00pm 21.1 18.9 18.7 86 1.5 SSW 28 41 15 22 1015.7 1015.3 0.0
16/11:30am 21.9 19.7 18.7 82 2.0 SW 28 44 15 24 1016.1 - 0.0
16/11:00am 21.3 18.8 18.1 82 2.0 SW 28 39 15 21 1016.4 - 0.0
16/10:30am 21.1 19.3 18.7 86 1.5 SW 26 35 14 19 1016.9 - 0.0
16/10:00am 20.7 17.9 18.1 85 1.6 WSW 30 39 16 21 1017.0 - 0.0
16/09:30am 20.2 18.6 18.3 89 1.2 SW 24 39 13 21 1017.0 - 0.0
16/09:00am 19.7 18.5 18.4 92 0.8 WSW 22 30 12 16 1016.9 1016.5 2.4
16/08:30am 19.1 17.3 17.9 93 0.7 SW 24 33 13 18 1016.8 - 2.4
16/08:00am 18.0 16.0 17.5 97 0.3 WSW 24 35 13 19 1016.6 - 2.4
16/07:30am 17.3 15.2 17.1 99 0.1 SW 24 32 13 17 1016.2 - 2.4
16/07:00am 16.9 13.6 16.9 100 0.0 SW 30 39 16 21 1015.8 - 2.4
16/06:30am 16.5 13.4 16.5 100 0.0 SW 28 41 15 22 1015.7 - 2.4
16/06:00am 16.3 13.5 16.3 100 0.0 WSW 26 35 14 19 1015.6 1015.2 2.4
16/05:30am 16.0 13.4 16.0 100 0.0 WSW 24 35 13 19 1015.3 - 2.4
16/05:00am 16.2 12.6 16.2 100 0.0 WSW 30 39 16 21 1014.9 - 2.4
16/04:30am 16.3 12.3 16.3 100 0.0 WSW 32 44 17 24 1015.0 - 2.4
16/04:00am 15.8 12.0 15.8 100 0.0 WSW 30 43 16 23 1015.0 - 2.4
16/03:30am 15.9 12.5 15.9 100 0.0 WSW 28 35 15 19 1015.0 - 2.4
16/03:00am 16.2 12.6 16.2 100 0.0 WSW 30 37 16 20 1015.1 1014.7 2.4
16/02:30am 16.5 12.6 16.5 100 0.0 WSW 32 43 17 23 1014.9 - 2.4
16/02:00am 16.5 12.5 16.3 99 0.1 WSW 32 41 17 22 1014.6 - 2.4
16/01:30am 16.6 12.6 16.1 97 0.3 WSW 32 39 17 21 1014.9 - 2.4
16/01:00am 16.8 13.0 15.8 94 0.6 WSW 30 41 16 22 1015.1 - 2.4
16/12:30am 17.0 12.9 15.9 93 0.7 WSW 32 39 17 21 1015.6 - 2.4
16/12:00am 17.2 13.6 16.2 94 0.6 WSW 30 35 16 19 1015.6 1015.2 2.4
 
Date/Time
EST
Temp
°C
App
Temp
°C
Dew
Point
Rel
Hum
%
Delta-T
°C
Wind Press
QNH
hPa
Press
MSL
hPa
Rain
since 9 am
mm
Dir
 
Spd
km/h
Gust
km/h
Spd
kts
Gust
kts
15/11:30pm 17.5 14.5 16.7 95 0.5 WSW 28 33 15 18 1015.7 - 2.4
15/11:00pm 17.5 14.3 17.2 98 0.2 WSW 30 37 16 20 1015.9 - 2.4
15/10:30pm 17.8 15.1 17.6 99 0.1 WSW 28 33 15 18 1016.2 - 2.4
15/10:00pm 18.5 16.6 17.7 95 0.5 SW 24 32 13 17 1016.2 - 2.4
15/09:30pm 17.8 16.3 17.8 100 0.0 SW 22 28 12 15 1016.2 - 2.4
15/09:00pm 18.3 15.5 18.1 99 0.1 WSW 30 35 16 19 1016.5 1016.2 2.2
15/08:30pm 18.1 15.6 18.1 100 0.0 WSW 28 33 15 18 1016.5 - 2.2
15/08:00pm 18.0 16.6 18.0 100 0.0 SW 22 30 12 16 1016.5 - 2.2
15/07:30pm 19.0 17.5 18.5 97 0.3 WSW 24 32 13 17 1016.4 - 2.0
15/07:00pm 20.4 18.9 18.5 89 1.2 SW 24 39 13 21 1016.0 - 2.0
15/06:30pm 21.2 17.7 19.5 90 1.1 S 37 48 20 26 1015.7 - 2.0
15/06:00pm 20.8 17.1 19.1 90 1.1 S 37 46 20 25 1015.7 1015.3 2.0

Other Formats:

Comma delimited format used in spreadsheet applications
http://www.bom.gov.au/fwo/IDN60801/IDN60801.94599.axf

JavaScript Object Notation format (JSON) in row-major order
http://www.bom.gov.au/fwo/IDN60801/IDN60801.94599.json